Time;durP1;ratioP1;P1;durP2;ratioP2;P2;SDS_P1;SDS_P2;PMS_P1;PMS_P2;Temp;Humidity;BMP_temperature;BMP_pressure;BME280_temperature;BME280_humidity;BME280_pressure;Samples;Min_cycle;Max_cycle;Signal;HPM_P1;HPM_P2
2021/12/29 00:00:59;;;;;;;;;;;7.80;61.80;;;;;;5113027;28;19915;-69
2021/12/29 00:03:25;;;;;;;;;;;7.80;61.90;;;;;;5112959;28;20357;-69
2021/12/29 00:05:50;;;;;;;;;;;7.80;61.90;;;;;;5095068;28;19912;-69
2021/12/29 00:08:16;;;;;;;;;;;7.80;61.90;;;;;;5105438;28;20002;-69
2021/12/29 00:10:41;;;;;;;;;;;7.80;62.00;;;;;;5112830;28;19912;-69
2021/12/29 00:13:07;;;;;;;;;;;7.80;62.10;;;;;;5112918;28;19908;-69
2021/12/29 00:15:33;;;;;;;;;;;7.80;62.10;;;;;;5111692;28;19918;-69
2021/12/29 00:17:59;;;;;;;;;;;7.80;62.20;;;;;;5091083;28;20288;-69
2021/12/29 00:20:28;;;;;;;;;;;7.80;62.10;;;;;;5092531;28;19908;-69
2021/12/29 00:22:58;;;;;;;;;;;7.80;62.20;;;;;;5092498;28;19944;-69
2021/12/29 00:25:24;;;;;;;;;;;7.90;62.30;;;;;;5092414;28;19908;-69
2021/12/29 00:27:49;;;;;;;;;;;7.90;62.40;;;;;;5092630;28;19924;-69
2021/12/29 00:30:15;;;;;;;;;;;7.90;62.40;;;;;;5094787;28;20285;-69
2021/12/29 00:32:41;;;;;;;;;;;7.90;62.40;;;;;;5096553;28;19908;-70
2021/12/29 00:35:08;;;;;;;;;;;8.00;62.50;;;;;;5096460;28;19916;-69
2021/12/29 00:37:34;;;;;;;;;;;8.00;62.40;;;;;;5095164;28;20003;-70
2021/12/29 00:39:59;;;;;;;;;;;8.00;62.40;;;;;;5096928;28;20034;-69
2021/12/29 00:42:25;;;;;;;;;;;8.00;62.40;;;;;;5096920;28;19977;-70
2021/12/29 00:44:51;;;;;;;;;;;8.00;62.40;;;;;;5096954;28;19916;-69
2021/12/29 00:47:17;;;;;;;;;;;8.00;62.50;;;;;;5097087;28;19908;-70
2021/12/29 00:49:43;;;;;;;;;;;8.10;62.50;;;;;;5096309;28;19908;-69
2021/12/29 00:52:09;;;;;;;;;;;8.00;62.40;;;;;;5095982;28;20008;-70
2021/12/29 00:54:37;;;;;;;;;;;8.00;62.40;;;;;;5096019;28;19998;-70
2021/12/29 00:57:02;;;;;;;;;;;8.00;62.40;;;;;;5097669;28;19991;-69
2021/12/29 00:59:28;;;;;;;;;;;8.00;62.50;;;;;;5116398;28;19966;-69
2021/12/29 01:01:54;;;;;;;;;;;8.00;62.50;;;;;;5116453;28;19914;-69
2021/12/29 01:04:20;;;;;;;;;;;8.00;62.50;;;;;;5116164;28;19939;-70
2021/12/29 01:06:45;;;;;;;;;;;8.10;62.60;;;;;;5116105;28;19932;-69
2021/12/29 01:09:11;;;;;;;;;;;8.10;62.60;;;;;;5116171;28;19920;-70
2021/12/29 01:11:37;;;;;;;;;;;8.10;62.70;;;;;;5115402;28;19912;-70
2021/12/29 01:14:04;;;;;;;;;;;8.10;62.70;;;;;;5095523;28;19912;-70
2021/12/29 01:18:58;;;;;;;;;;;8.10;62.70;;;;;;5096056;28;20342;-70
2021/12/29 01:21:24;;;;;;;;;;;8.20;62.80;;;;;;5095405;28;19912;-70
2021/12/29 01:23:50;;;;;;;;;;;8.20;62.70;;;;;;5094093;28;19908;-70
2021/12/29 01:26:17;;;;;;;;;;;8.20;62.70;;;;;;5095401;28;20621;-70
2021/12/29 01:28:43;;;;;;;;;;;8.20;62.60;;;;;;5095223;28;19915;-70
2021/12/29 01:31:08;;;;;;;;;;;8.20;62.60;;;;;;5110300;28;19912;-70
2021/12/29 01:33:34;;;;;;;;;;;8.20;62.70;;;;;;5115524;28;19912;-70
2021/12/29 01:35:59;;;;;;;;;;;8.20;62.70;;;;;;5099702;28;19993;-70
2021/12/29 01:38:25;;;;;;;;;;;8.30;62.80;;;;;;5095231;28;19915;-70
2021/12/29 01:40:51;;;;;;;;;;;8.30;62.80;;;;;;5094746;28;19916;-70
2021/12/29 01:43:17;;;;;;;;;;;8.30;62.80;;;;;;5094929;28;20418;-70
2021/12/29 01:45:43;;;;;;;;;;;8.30;62.80;;;;;;5094923;28;20001;-70
2021/12/29 01:48:09;;;;;;;;;;;8.30;63.60;;;;;;5094994;28;20361;-70
2021/12/29 01:50:35;;;;;;;;;;;8.30;62.70;;;;;;5094808;28;19955;-70
2021/12/29 01:53:07;;;;;;;;;;;8.30;62.50;;;;;;5094270;28;19912;-69
2021/12/29 01:55:33;;;;;;;;;;;8.30;62.50;;;;;;5094497;28;20007;-68
2021/12/29 01:57:59;;;;;;;;;;;8.30;62.60;;;;;;5113267;28;19978;-69
2021/12/29 02:00:27;;;;;;;;;;;8.30;62.70;;;;;;5113346;28;19908;-69
2021/12/29 02:02:54;;;;;;;;;;;8.30;62.70;;;;;;5114693;28;19918;-69
2021/12/29 02:05:19;;;;;;;;;;;8.30;62.80;;;;;;5114552;28;19915;-69
2021/12/29 02:07:45;;;;;;;;;;;8.30;62.80;;;;;;5114555;28;19912;-69
2021/12/29 02:10:12;;;;;;;;;;;8.30;62.80;;;;;;5114486;28;19912;-70
2021/12/29 02:12:38;;;;;;;;;;;8.30;62.80;;;;;;5096148;28;20392;-69
2021/12/29 02:15:04;;;;;;;;;;;8.30;62.70;;;;;;5095210;28;19938;-70
2021/12/29 02:17:30;;;;;;;;;;;8.30;62.70;;;;;;5114259;28;19916;-69
2021/12/29 02:19:57;;;;;;;;;;;8.30;62.70;;;;;;5104484;28;19919;-70
2021/12/29 02:25:20;;;;;;;;;;;8.30;62.70;;;;;;5114204;28;19915;-70
2021/12/29 02:27:49;;;;;;;;;;;8.30;62.70;;;;;;5114209;28;19908;-70
2021/12/29 02:30:16;;;;;;;;;;;8.30;62.60;;;;;;5114181;28;19908;-70
2021/12/29 02:32:43;;;;;;;;;;;8.20;62.60;;;;;;5114074;28;19915;-70
2021/12/29 02:35:09;;;;;;;;;;;8.20;62.70;;;;;;5114018;28;19959;-70
2021/12/29 02:37:35;;;;;;;;;;;8.20;62.70;;;;;;5096661;28;19919;-70
2021/12/29 02:40:01;;;;;;;;;;;8.20;62.80;;;;;;5093541;28;19927;-70
2021/12/29 02:42:30;;;;;;;;;;;8.20;62.80;;;;;;5093479;28;19909;-70
2021/12/29 02:44:55;;;;;;;;;;;8.20;62.70;;;;;;5093582;28;20366;-70
2021/12/29 02:47:21;;;;;;;;;;;8.20;62.70;;;;;;5096017;28;19920;-70
2021/12/29 02:49:47;;;;;;;;;;;8.20;62.80;;;;;;5113782;28;19958;-70
2021/12/29 02:52:14;;;;;;;;;;;8.20;62.90;;;;;;5112161;28;19908;-70
2021/12/29 02:54:40;;;;;;;;;;;8.20;63.00;;;;;;5093278;28;20002;-70
2021/12/29 02:57:06;;;;;;;;;;;8.30;63.10;;;;;;5095231;28;19999;-70
2021/12/29 02:59:32;;;;;;;;;;;8.30;63.20;;;;;;5113562;28;19935;-70
2021/12/29 03:01:58;;;;;;;;;;;8.30;63.20;;;;;;5111859;28;20372;-70
2021/12/29 03:04:23;;;;;;;;;;;8.30;63.20;;;;;;5113514;28;19908;-71
2021/12/29 03:06:49;;;;;;;;;;;8.30;63.20;;;;;;5113478;28;19911;-70
2021/12/29 03:09:16;;;;;;;;;;;8.30;63.20;;;;;;5113416;28;19914;-70
2021/12/29 03:11:42;;;;;;;;;;;8.30;63.20;;;;;;5113395;27;19911;-70
2021/12/29 03:14:09;;;;;;;;;;;8.30;63.20;;;;;;5113279;28;20177;-70
2021/12/29 03:16:35;;;;;;;;;;;8.30;63.20;;;;;;5110405;28;19965;-70
2021/12/29 03:19:02;;;;;;;;;;;8.30;63.30;;;;;;5090929;28;19943;-71
2021/12/29 03:21:28;;;;;;;;;;;8.30;63.40;;;;;;5108745;28;20303;-71
2021/12/29 03:23:54;;;;;;;;;;;8.30;63.40;;;;;;5112434;28;19912;-70
2021/12/29 03:26:19;;;;;;;;;;;8.30;63.40;;;;;;5112425;28;19914;-71
2021/12/29 03:28:45;;;;;;;;;;;8.30;63.50;;;;;;5092254;28;19909;-71
2021/12/29 03:31:14;;;;;;;;;;;8.40;63.50;;;;;;5091935;28;19916;-70
2021/12/29 03:33:40;;;;;;;;;;;8.40;63.50;;;;;;5091952;28;19915;-71
2021/12/29 03:36:06;;;;;;;;;;;8.40;63.50;;;;;;5091838;28;20358;-71
2021/12/29 03:38:33;;;;;;;;;;;8.40;63.40;;;;;;5091815;28;19919;-71
2021/12/29 03:40:59;;;;;;;;;;;8.40;63.40;;;;;;5091794;28;19912;-71
2021/12/29 03:43:26;;;;;;;;;;;8.50;63.60;;;;;;5109390;28;20353;-71
2021/12/29 03:45:52;;;;;;;;;;;8.50;63.60;;;;;;5112000;28;19964;-71
2021/12/29 03:48:19;;;;;;;;;;;8.50;63.50;;;;;;5111981;28;19908;-71
2021/12/29 03:50:46;;;;;;;;;;;8.50;63.50;;;;;;5112058;28;20281;-71
2021/12/29 03:53:13;;;;;;;;;;;8.50;63.50;;;;;;5098354;28;19913;-71
2021/12/29 03:55:42;;;;;;;;;;;8.60;63.50;;;;;;5093183;28;19916;-70
2021/12/29 03:58:08;;;;;;;;;;;8.50;63.50;;;;;;5111884;28;19908;-70
2021/12/29 04:00:34;;;;;;;;;;;8.60;63.60;;;;;;5111880;28;19914;-71
2021/12/29 04:02:59;;;;;;;;;;;8.60;63.60;;;;;;5111714;28;20375;-71
2021/12/29 04:05:25;;;;;;;;;;;8.60;63.60;;;;;;5110700;28;19973;-71
2021/12/29 04:07:56;;;;;;;;;;;8.60;63.60;;;;;;5111843;28;20000;-71
2021/12/29 04:10:22;;;;;;;;;;;8.60;63.70;;;;;;5102453;28;19912;-71
2021/12/29 04:12:47;;;;;;;;;;;8.60;63.70;;;;;;5091436;28;19912;-71
2021/12/29 04:15:14;;;;;;;;;;;8.70;63.80;;;;;;5091185;28;19920;-70
2021/12/29 04:17:40;;;;;;;;;;;8.70;63.80;;;;;;5014730;28;2181611;-70
2021/12/29 04:23:03;;;;;;;;;;;8.70;63.90;;;;;;5101511;28;19961;-70
2021/12/29 04:25:30;;;;;;;;;;;8.80;63.90;;;;;;5112420;28;19966;-71
2021/12/29 04:27:57;;;;;;;;;;;8.80;63.90;;;;;;5112443;28;19915;-71
2021/12/29 04:30:24;;;;;;;;;;;8.80;63.90;;;;;;5110923;28;19914;-71
2021/12/29 04:32:52;;;;;;;;;;;8.80;63.80;;;;;;5112295;28;19912;-70
2021/12/29 04:35:18;;;;;;;;;;;8.80;63.80;;;;;;5112247;28;20302;-71
2021/12/29 04:37:44;;;;;;;;;;;8.90;63.80;;;;;;5103474;28;19962;-71
2021/12/29 04:40:10;;;;;;;;;;;8.90;63.80;;;;;;5091919;28;19951;-71
2021/12/29 04:42:35;;;;;;;;;;;8.90;63.80;;;;;;5090608;28;19912;-72
2021/12/29 04:45:01;;;;;;;;;;;8.90;63.80;;;;;;5090452;28;19919;-71
2021/12/29 04:47:29;;;;;;;;;;;8.90;63.80;;;;;;5091825;28;19957;-71
2021/12/29 04:49:57;;;;;;;;;;;9.00;63.80;;;;;;5092114;28;19923;-71
2021/12/29 04:52:22;;;;;;;;;;;9.00;63.80;;;;;;5095921;28;19916;-71
2021/12/29 04:54:48;;;;;;;;;;;9.00;63.80;;;;;;5097981;28;19912;-71
2021/12/29 04:57:15;;;;;;;;;;;8.90;63.70;;;;;;5112080;28;19918;-71
2021/12/29 04:59:41;;;;;;;;;;;8.90;63.70;;;;;;5110916;28;19908;-71
2021/12/29 05:02:07;;;;;;;;;;;8.90;63.70;;;;;;5110725;28;19973;-71
2021/12/29 05:04:34;;;;;;;;;;;8.90;63.70;;;;;;5111955;28;20014;-70
2021/12/29 05:09:44;;;;;;;;;;;9.00;63.80;;;;;;5091977;28;20012;-70
2021/12/29 05:12:10;;;;;;;;;;;9.00;63.90;;;;;;5091624;28;20384;-70
2021/12/29 05:14:36;;;;;;;;;;;9.00;63.90;;;;;;5090572;28;20034;-70
2021/12/29 05:17:02;;;;;;;;;;;9.00;63.90;;;;;;5094592;28;20041;-70
2021/12/29 05:19:28;;;;;;;;;;;9.00;63.90;;;;;;5095312;28;19958;-71
2021/12/29 05:21:53;;;;;;;;;;;9.10;63.90;;;;;;5097470;28;20339;-71
2021/12/29 05:24:19;;;;;;;;;;;9.10;63.90;;;;;;5115334;28;19912;-71
2021/12/29 05:26:45;;;;;;;;;;;9.10;63.90;;;;;;5114041;28;20762;-70
2021/12/29 05:29:10;;;;;;;;;;;9.10;63.90;;;;;;5113881;28;20002;-71
2021/12/29 05:31:36;;;;;;;;;;;9.10;63.90;;;;;;5115291;28;19908;-71
2021/12/29 05:34:01;;;;;;;;;;;9.10;63.80;;;;;;5115207;27;19912;-70
2021/12/29 05:36:27;;;;;;;;;;;9.10;63.80;;;;;;5114468;28;19915;-70
2021/12/29 05:38:53;;;;;;;;;;;9.10;63.90;;;;;;5094786;28;20337;-70
2021/12/29 05:41:19;;;;;;;;;;;9.10;63.90;;;;;;5093332;28;19908;-71
2021/12/29 05:43:45;;;;;;;;;;;9.20;63.90;;;;;;5095407;28;19908;-71
2021/12/29 05:46:11;;;;;;;;;;;9.20;64.00;;;;;;5094841;28;20335;-70
2021/12/29 05:48:37;;;;;;;;;;;9.20;63.90;;;;;;5095493;28;20007;-70
2021/12/29 05:51:03;;;;;;;;;;;9.20;63.90;;;;;;5112366;28;19919;-70
2021/12/29 05:53:28;;;;;;;;;;;9.20;63.90;;;;;;5115456;28;19916;-70
2021/12/29 05:55:54;;;;;;;;;;;9.20;63.90;;;;;;5115757;28;19920;-71
2021/12/29 05:58:20;;;;;;;;;;;9.20;63.80;;;;;;5115682;28;19908;-70
2021/12/29 06:00:45;;;;;;;;;;;9.20;63.90;;;;;;5115754;28;19908;-70
2021/12/29 06:03:11;;;;;;;;;;;9.20;63.90;;;;;;5115890;28;19912;-70
2021/12/29 06:05:37;;;;;;;;;;;9.20;63.90;;;;;;5114677;28;19908;-70
2021/12/29 06:08:03;;;;;;;;;;;9.20;64.00;;;;;;5099202;28;20226;-70
2021/12/29 06:10:30;;;;;;;;;;;9.20;64.00;;;;;;5095777;28;19918;-70
2021/12/29 06:12:55;;;;;;;;;;;9.20;64.00;;;;;;5095117;28;19958;-70
2021/12/29 06:15:21;;;;;;;;;;;9.20;64.00;;;;;;5111218;28;19919;-71
2021/12/29 06:17:47;;;;;;;;;;;9.30;64.10;;;;;;5115187;28;20385;-70
2021/12/29 06:20:12;;;;;;;;;;;9.30;64.00;;;;;;5102111;28;20010;-70
2021/12/29 06:22:38;;;;;;;;;;;9.30;64.00;;;;;;5094997;28;19919;-70
2021/12/29 06:25:05;;;;;;;;;;;9.30;64.00;;;;;;5094894;28;19955;-71
2021/12/29 06:27:31;;;;;;;;;;;9.30;64.00;;;;;;5093754;28;19961;-70
2021/12/29 06:29:57;;;;;;;;;;;9.30;64.00;;;;;;5094892;28;19941;-70
2021/12/29 06:32:23;;;;;;;;;;;9.30;64.10;;;;;;5095029;28;20330;-70
2021/12/29 06:34:48;;;;;;;;;;;9.40;64.20;;;;;;5094607;28;20141;-70
2021/12/29 06:37:15;;;;;;;;;;;9.40;64.20;;;;;;5094690;28;20432;-70
2021/12/29 06:39:42;;;;;;;;;;;9.40;64.10;;;;;;5093661;28;20246;-70
2021/12/29 06:42:08;;;;;;;;;;;9.40;64.10;;;;;;5094518;28;19908;-70
2021/12/29 06:44:33;;;;;;;;;;;9.40;64.20;;;;;;5094660;28;19935;-69
2021/12/29 06:46:59;;;;;;;;;;;9.40;64.10;;;;;;5094421;28;20361;-70
2021/12/29 06:49:25;;;;;;;;;;;9.40;64.00;;;;;;5094304;28;19912;-69
2021/12/29 06:51:50;;;;;;;;;;;9.50;64.20;;;;;;5098076;28;20249;-70
2021/12/29 06:54:16;;;;;;;;;;;9.50;64.10;;;;;;5114530;28;20002;-70
2021/12/29 06:56:41;;;;;;;;;;;9.50;64.90;;;;;;5114525;28;20006;-70
2021/12/29 06:59:07;;;;;;;;;;;9.50;64.10;;;;;;5114429;28;19973;-70
2021/12/29 07:01:32;;;;;;;;;;;9.40;64.00;;;;;;5107234;28;19935;-70
2021/12/29 07:03:58;;;;;;;;;;;9.50;64.10;;;;;;5094074;28;20369;-69
2021/12/29 07:06:24;;;;;;;;;;;9.50;64.10;;;;;;5094092;28;19987;-69
2021/12/29 07:08:50;;;;;;;;;;;9.50;64.10;;;;;;5093983;28;20272;-69
2021/12/29 07:11:15;;;;;;;;;;;9.40;63.90;;;;;;5093939;28;19908;-69
2021/12/29 07:13:42;;;;;;;;;;;9.50;64.00;;;;;;5093982;28;20003;-69
2021/12/29 07:16:08;;;;;;;;;;;9.50;64.00;;;;;;5093769;28;20366;-69
2021/12/29 07:18:34;;;;;;;;;;;9.40;64.00;;;;;;5093911;28;20273;-69
2021/12/29 07:21:00;;;;;;;;;;;9.50;64.10;;;;;;5093818;28;19919;-69
2021/12/29 07:23:25;;;;;;;;;;;9.50;64.10;;;;;;5093737;28;19908;-69
2021/12/29 07:25:51;;;;;;;;;;;9.50;64.20;;;;;;5092274;28;20001;-69
2021/12/29 07:28:16;;;;;;;;;;;9.50;64.10;;;;;;5093605;28;19908;-69
2021/12/29 07:30:42;;;;;;;;;;;9.50;64.10;;;;;;5093467;28;19912;-69
2021/12/29 07:33:08;;;;;;;;;;;9.50;64.10;;;;;;5093429;28;19909;-69
2021/12/29 07:35:33;;;;;;;;;;;9.50;64.10;;;;;;5093473;28;20361;-69
2021/12/29 07:37:59;;;;;;;;;;;9.50;64.10;;;;;;5091958;28;20297;-69
2021/12/29 07:40:25;;;;;;;;;;;9.50;64.10;;;;;;5093383;28;19915;-69
2021/12/29 07:42:50;;;;;;;;;;;9.50;64.10;;;;;;5112539;28;20373;-69
2021/12/29 07:45:16;;;;;;;;;;;9.50;64.00;;;;;;5113579;28;19908;-69
2021/12/29 07:47:46;;;;;;;;;;;9.50;64.10;;;;;;5096068;28;19960;-69
2021/12/29 07:50:13;;;;;;;;;;;9.50;64.10;;;;;;5096570;28;19994;-69
2021/12/29 07:52:39;;;;;;;;;;;9.50;64.10;;;;;;5113563;28;19915;-69
2021/12/29 07:55:05;;;;;;;;;;;9.50;64.10;;;;;;5113419;28;19911;-69
2021/12/29 07:57:30;;;;;;;;;;;9.50;64.10;;;;;;5113430;28;19915;-69
2021/12/29 07:59:56;;;;;;;;;;;9.50;64.20;;;;;;5113381;28;19943;-69
2021/12/29 08:02:27;;;;;;;;;;;9.50;64.20;;;;;;5113385;28;19908;-69
2021/12/29 08:04:58;;;;;;;;;;;9.60;64.30;;;;;;5101070;28;19912;-69
2021/12/29 08:07:25;;;;;;;;;;;9.60;64.30;;;;;;5092969;28;20389;-68
2021/12/29 08:09:51;;;;;;;;;;;9.60;64.40;;;;;;5093200;28;20431;-69
2021/12/29 08:12:17;;;;;;;;;;;9.60;64.40;;;;;;5093038;28;20342;-68
2021/12/29 08:14:43;;;;;;;;;;;9.70;64.50;;;;;;5093128;28;19923;-69
2021/12/29 08:17:10;;;;;;;;;;;9.70;64.40;;;;;;5093066;28;19924;-69
2021/12/29 08:19:35;;;;;;;;;;;9.70;64.50;;;;;;5091759;28;19919;-68
2021/12/29 08:22:01;;;;;;;;;;;9.70;64.50;;;;;;5091534;28;19919;-68
2021/12/29 08:24:27;;;;;;;;;;;9.80;64.70;;;;;;5091914;28;19915;-69
2021/12/29 08:26:52;;;;;;;;;;;9.80;64.80;;;;;;5092789;28;19909;-69
2021/12/29 08:29:18;;;;;;;;;;;9.90;64.90;;;;;;5093056;28;19958;-69
2021/12/29 08:31:43;;;;;;;;;;;9.90;65.10;;;;;;5092581;28;19908;-69
2021/12/29 08:34:09;;;;;;;;;;;10.00;65.30;;;;;;5092930;28;19919;-69
2021/12/29 08:36:35;;;;;;;;;;;10.00;65.40;;;;;;5091426;28;20045;-69
2021/12/29 08:39:00;;;;;;;;;;;10.10;65.60;;;;;;5092627;28;19920;-69
2021/12/29 08:41:26;;;;;;;;;;;10.20;65.70;;;;;;5106348;28;20292;-69
2021/12/29 08:43:51;;;;;;;;;;;10.20;65.70;;;;;;5112885;28;19938;-69
2021/12/29 08:46:17;;;;;;;;;;;10.30;65.90;;;;;;5111786;28;19915;-70
2021/12/29 08:48:43;;;;;;;;;;;10.40;65.90;;;;;;5107859;28;20034;-70
2021/12/29 08:51:09;;;;;;;;;;;10.40;65.90;;;;;;5115304;28;19961;-69
2021/12/29 08:53:35;;;;;;;;;;;10.50;66.00;;;;;;5116954;28;19908;-70
2021/12/29 08:56:01;;;;;;;;;;;10.60;66.00;;;;;;5116889;28;20014;-70
2021/12/29 08:58:26;;;;;;;;;;;10.60;66.00;;;;;;5113324;27;19920;-70
2021/12/29 09:00:53;;;;;;;;;;;10.70;66.10;;;;;;5102736;28;20003;-69
2021/12/29 09:03:19;;;;;;;;;;;10.80;66.20;;;;;;5116387;28;19914;-70
2021/12/29 09:05:45;;;;;;;;;;;10.80;66.20;;;;;;5116371;28;19911;-71
2021/12/29 09:08:11;;;;;;;;;;;10.90;66.30;;;;;;5116622;28;20395;-70
2021/12/29 09:10:37;;;;;;;;;;;10.90;66.30;;;;;;5107023;27;20297;-70
2021/12/29 09:13:03;;;;;;;;;;;11.00;66.30;;;;;;5106787;28;19923;-70
2021/12/29 09:15:29;;;;;;;;;;;11.10;66.30;;;;;;5133837;27;19977;-70
2021/12/29 09:17:54;;;;;;;;;;;11.20;66.30;;;;;;5112271;28;19924;-69
2021/12/29 09:20:26;;;;;;;;;;;11.20;66.30;;;;;;5116378;28;19960;-70
2021/12/29 09:22:52;;;;;;;;;;;11.30;66.40;;;;;;5103196;28;19916;-70
2021/12/29 09:25:20;;;;;;;;;;;11.30;66.40;;;;;;5095873;28;20327;-70
2021/12/29 09:27:49;;;;;;;;;;;11.40;66.50;;;;;;5099025;28;19911;-70
2021/12/29 09:30:19;;;;;;;;;;;11.50;66.60;;;;;;5102231;28;19912;-70
2021/12/29 09:32:45;;;;;;;;;;;11.50;66.50;;;;;;5116096;27;20314;-70
2021/12/29 09:35:11;;;;;;;;;;;11.60;66.50;;;;;;5115577;28;19919;-70
2021/12/29 09:37:37;;;;;;;;;;;11.60;66.50;;;;;;5115936;28;19957;-70
2021/12/29 09:40:03;;;;;;;;;;;11.70;66.40;;;;;;5111435;28;19920;-70
2021/12/29 09:42:28;;;;;;;;;;;11.70;66.40;;;;;;5115387;28;20342;-69
2021/12/29 09:44:54;;;;;;;;;;;11.80;66.40;;;;;;5118558;27;20342;-70
2021/12/29 09:47:20;;;;;;;;;;;11.80;66.30;;;;;;5121888;27;19953;-70
2021/12/29 09:49:45;;;;;;;;;;;11.90;66.30;;;;;;5109721;28;19920;-69
2021/12/29 09:52:11;;;;;;;;;;;11.90;66.20;;;;;;5101946;28;19916;-70
2021/12/29 09:54:37;;;;;;;;;;;11.90;66.20;;;;;;5120288;27;19951;-69
2021/12/29 09:57:03;;;;;;;;;;;12.00;66.20;;;;;;5117099;27;19912;-69
2021/12/29 09:59:29;;;;;;;;;;;12.00;66.20;;;;;;5112943;27;20384;-69
2021/12/29 10:01:57;;;;;;;;;;;12.00;66.20;;;;;;5107008;27;19951;-70
2021/12/29 10:04:23;;;;;;;;;;;12.10;66.10;;;;;;5113203;28;19908;-70
2021/12/29 10:06:48;;;;;;;;;;;12.10;66.10;;;;;;5115252;28;19908;-69
2021/12/29 10:09:15;;;;;;;;;;;12.10;66.10;;;;;;5115376;28;19914;-69
2021/12/29 10:11:41;;;;;;;;;;;12.20;66.20;;;;;;5115407;28;19923;-69
2021/12/29 10:14:11;;;;;;;;;;;12.20;66.10;;;;;;5115168;28;19988;-70
2021/12/29 10:16:37;;;;;;;;;;;12.20;66.10;;;;;;5114260;28;19923;-69
2021/12/29 10:19:03;;;;;;;;;;;12.30;66.10;;;;;;5115256;28;19908;-69
2021/12/29 10:21:29;;;;;;;;;;;12.30;66.10;;;;;;5115130;28;20281;-69
2021/12/29 10:23:55;;;;;;;;;;;12.30;66.00;;;;;;5115223;28;20006;-70
2021/12/29 10:26:22;;;;;;;;;;;12.30;65.90;;;;;;5113906;28;19915;-70
2021/12/29 10:28:50;;;;;;;;;;;12.30;65.90;;;;;;5109083;28;19912;-69
2021/12/29 10:31:17;;;;;;;;;;;12.40;66.00;;;;;;5114967;28;19908;-70
2021/12/29 10:33:44;;;;;;;;;;;12.40;66.00;;;;;;5115065;28;19915;-69
2021/12/29 10:36:10;;;;;;;;;;;12.40;66.00;;;;;;5110225;28;19919;-70
2021/12/29 10:38:35;;;;;;;;;;;12.40;66.00;;;;;;5104263;28;19913;-70
2021/12/29 10:41:03;;;;;;;;;;;12.50;66.80;;;;;;5094373;28;19912;-70
2021/12/29 10:43:29;;;;;;;;;;;12.50;66.00;;;;;;5094282;28;19915;-70
2021/12/29 10:45:54;;;;;;;;;;;12.50;66.00;;;;;;5096768;28;19912;-70
2021/12/29 10:48:20;;;;;;;;;;;12.60;66.10;;;;;;5114612;28;20349;-69
2021/12/29 10:50:57;;;;;;;;;;;12.60;66.00;;;;;;5114611;28;19908;-69
2021/12/29 10:53:23;;;;;;;;;;;12.60;65.80;;;;;;5114623;28;19908;-70
2021/12/29 10:55:48;;;;;;;;;;;12.60;65.70;;;;;;5114792;28;20003;-70
2021/12/29 10:58:16;;;;;;;;;;;12.60;65.70;;;;;;5114832;28;19914;-70
2021/12/29 11:00:43;;;;;;;;;;;12.70;65.70;;;;;;5114709;28;19951;-71
2021/12/29 11:03:10;;;;;;;;;;;12.70;65.70;;;;;;5114803;28;20387;-70
2021/12/29 11:05:37;;;;;;;;;;;12.70;65.70;;;;;;5114779;28;19991;-70
2021/12/29 11:08:09;;;;;;;;;;;12.80;65.70;;;;;;5115987;28;20410;-71
2021/12/29 11:10:35;;;;;;;;;;;12.80;66.40;;;;;;5115796;28;19915;-70
2021/12/29 11:13:01;;;;;;;;;;;12.80;65.50;;;;;;5114344;28;19908;-69
2021/12/29 11:15:38;;;;;;;;;;;12.80;65.50;;;;;;5114461;28;20021;-70
2021/12/29 11:18:06;;;;;;;;;;;12.90;65.50;;;;;;5114528;28;20048;-70
2021/12/29 11:20:33;;;;;;;;;;;12.90;65.50;;;;;;5114507;28;19923;-70
2021/12/29 11:23:04;;;;;;;;;;;12.90;65.40;;;;;;5114579;28;19915;-70
2021/12/29 11:25:31;;;;;;;;;;;12.90;65.30;;;;;;5114583;28;19907;-70
2021/12/29 11:27:57;;;;;;;;;;;13.00;65.40;;;;;;5114759;28;20404;-70
2021/12/29 11:30:23;;;;;;;;;;;13.00;65.30;;;;;;5114328;28;19908;-70
2021/12/29 11:32:49;;;;;;;;;;;13.00;65.30;;;;;;5114128;28;19916;-70
2021/12/29 11:35:23;;;;;;;;;;;13.00;65.20;;;;;;5113834;28;19918;-69
2021/12/29 11:37:50;;;;;;;;;;;13.00;65.20;;;;;;5113977;28;19942;-70
2021/12/29 11:40:23;;;;;;;;;;;13.10;65.30;;;;;;5114047;28;19973;-71
2021/12/29 11:42:48;;;;;;;;;;;13.10;65.30;;;;;;5113947;28;20389;-69
2021/12/29 11:45:14;;;;;;;;;;;13.10;65.10;;;;;;5113845;28;19986;-70
2021/12/29 11:47:40;;;;;;;;;;;13.20;64.90;;;;;;5113869;28;20203;-70
2021/12/29 11:50:08;;;;;;;;;;;13.20;64.80;;;;;;5113860;28;20346;-70
2021/12/29 11:52:49;;;;;;;;;;;13.20;64.80;;;;;;5113862;28;20285;-69
2021/12/29 11:55:24;;;;;;;;;;;13.30;64.90;;;;;;5113830;28;19912;-69
2021/12/29 11:57:50;;;;;;;;;;;13.30;64.80;;;;;;5113748;28;19908;-70
2021/12/29 12:00:19;;;;;;;;;;;13.30;64.60;;;;;;5113764;28;19914;-69
2021/12/29 12:02:51;;;;;;;;;;;13.30;64.40;;;;;;5113820;28;20002;-69
2021/12/29 12:05:19;;;;;;;;;;;13.40;64.40;;;;;;5113728;28;19908;-69
2021/12/29 12:07:45;;;;;;;;;;;13.40;64.40;;;;;;5113823;28;19908;-69
2021/12/29 12:10:14;;;;;;;;;;;13.40;64.30;;;;;;5113691;28;19912;-70
2021/12/29 12:12:42;;;;;;;;;;;13.50;64.30;;;;;;5113633;28;20308;-70
2021/12/29 12:15:08;;;;;;;;;;;13.50;64.20;;;;;;5113334;28;19919;-70
2021/12/29 12:17:35;;;;;;;;;;;13.50;64.00;;;;;;5113582;28;19920;-69
2021/12/29 12:20:08;;;;;;;;;;;13.60;64.00;;;;;;5113719;28;19908;-70
2021/12/29 12:23:00;;;;;;;;;;;13.50;63.80;;;;;;5113579;28;19914;-70
2021/12/29 12:25:28;;;;;;;;;;;13.60;63.70;;;;;;5111456;28;19908;-71
2021/12/29 12:28:00;;;;;;;;;;;13.60;63.70;;;;;;5117773;28;19908;-70
2021/12/29 12:30:28;;;;;;;;;;;13.60;63.60;;;;;;5117776;28;19908;-69
2021/12/29 12:32:58;;;;;;;;;;;13.60;63.50;;;;;;5117711;28;20002;-71
2021/12/29 12:35:26;;;;;;;;;;;13.60;63.40;;;;;;5117528;28;19912;-68
2021/12/29 12:37:52;;;;;;;;;;;13.60;63.20;;;;;;5117590;28;20361;-70
2021/12/29 12:40:23;;;;;;;;;;;13.60;63.20;;;;;;5117399;28;19908;-70
2021/12/29 12:43:06;;;;;;;;;;;13.60;63.20;;;;;;5117292;28;20340;-69
2021/12/29 12:45:34;;;;;;;;;;;13.60;63.10;;;;;;5117411;28;19912;-70
2021/12/29 12:48:11;;;;;;;;;;;13.70;63.20;;;;;;5117723;28;19998;-69
2021/12/29 12:50:38;;;;;;;;;;;13.70;63.10;;;;;;5117397;28;20262;-69
2021/12/29 12:53:04;;;;;;;;;;;13.70;63.00;;;;;;5117206;28;19915;-70
2021/12/29 12:55:32;;;;;;;;;;;13.60;63.70;;;;;;5117241;28;19912;-70
2021/12/29 12:58:08;;;;;;;;;;;13.70;62.90;;;;;;5117129;28;19954;-70
2021/12/29 13:00:34;;;;;;;;;;;13.70;62.80;;;;;;5117119;28;19907;-69
2021/12/29 13:03:04;;;;;;;;;;;13.60;62.60;;;;;;5116857;28;19907;-69
2021/12/29 13:05:31;;;;;;;;;;;13.60;62.60;;;;;;5117043;28;19960;-69
2021/12/29 13:08:01;;;;;;;;;;;13.60;62.50;;;;;;5116997;28;19908;-70
2021/12/29 13:10:28;;;;;;;;;;;13.60;62.50;;;;;;5117022;28;19911;-70
2021/12/29 13:12:58;;;;;;;;;;;13.60;62.50;;;;;;5116892;28;20319;-70
2021/12/29 13:15:25;;;;;;;;;;;13.60;63.20;;;;;;5116744;28;19918;-69
2021/12/29 13:17:50;;;;;;;;;;;13.60;62.40;;;;;;5116612;28;19926;-70
2021/12/29 13:20:17;;;;;;;;;;;13.60;63.20;;;;;;5116837;28;20301;-68
2021/12/29 13:22:43;;;;;;;;;;;13.60;62.40;;;;;;5116760;28;20277;-69
2021/12/29 13:25:16;;;;;;;;;;;13.60;62.30;;;;;;5116639;28;19908;-69
2021/12/29 13:27:43;;;;;;;;;;;13.60;62.30;;;;;;5116617;28;20254;-69
2021/12/29 13:30:11;;;;;;;;;;;13.60;62.20;;;;;;5116586;27;19915;-71
2021/12/29 13:32:47;;;;;;;;;;;13.60;62.20;;;;;;5116406;28;19994;-71
2021/12/29 13:35:13;;;;;;;;;;;13.60;62.10;;;;;;5116590;28;19918;-69
2021/12/29 13:37:38;;;;;;;;;;;13.60;62.10;;;;;;5116150;28;19994;-69
2021/12/29 13:40:06;;;;;;;;;;;13.60;62.10;;;;;;5116440;28;20007;-71
2021/12/29 13:42:38;;;;;;;;;;;13.60;62.10;;;;;;5116199;28;20285;-69
2021/12/29 13:45:04;;;;;;;;;;;13.60;62.20;;;;;;5115167;28;19907;-70
2021/12/29 13:47:29;;;;;;;;;;;13.60;62.20;;;;;;5116149;28;19908;-69
2021/12/29 13:49:56;;;;;;;;;;;13.60;62.10;;;;;;5116297;28;19956;-69
2021/12/29 13:52:21;;;;;;;;;;;13.60;62.10;;;;;;5116206;28;19912;-67
2021/12/29 13:54:47;;;;;;;;;;;13.60;62.10;;;;;;5114672;28;19919;-67
2021/12/29 13:57:13;;;;;;;;;;;13.60;62.10;;;;;;5116194;28;19996;-68
2021/12/29 13:59:39;;;;;;;;;;;13.60;62.10;;;;;;5116128;28;19953;-68
2021/12/29 14:02:06;;;;;;;;;;;13.60;62.10;;;;;;5115907;28;20307;-68
2021/12/29 14:04:36;;;;;;;;;;;13.60;62.00;;;;;;5115905;28;19995;-68
2021/12/29 14:07:07;;;;;;;;;;;13.60;62.00;;;;;;5115886;28;19965;-68
2021/12/29 14:09:33;;;;;;;;;;;13.60;62.00;;;;;;5115823;28;19943;-68
2021/12/29 14:12:08;;;;;;;;;;;13.60;62.00;;;;;;5115783;27;20279;-68
2021/12/29 14:14:34;;;;;;;;;;;13.60;62.00;;;;;;5115719;28;19915;-69
2021/12/29 14:16:59;;;;;;;;;;;13.50;62.00;;;;;;5115404;28;19919;-69
2021/12/29 14:19:27;;;;;;;;;;;13.50;62.10;;;;;;5115653;28;19915;-69
2021/12/29 14:21:54;;;;;;;;;;;13.50;62.10;;;;;;5115581;28;19933;-69
2021/12/29 14:24:21;;;;;;;;;;;13.50;62.20;;;;;;5115591;28;19973;-69
2021/12/29 14:26:53;;;;;;;;;;;13.50;62.20;;;;;;5115574;28;19915;-69
2021/12/29 14:29:21;;;;;;;;;;;13.50;62.20;;;;;;5115555;28;20002;-69
2021/12/29 14:31:53;;;;;;;;;;;13.50;62.20;;;;;;5115445;28;19908;-69